sensor_id;sensor_type;location;lat;lon;timestamp;temperature;humidity
43183;DHT22;28802;38.578;-0.066;2023-03-13T00:02:14;16.50;99.90
43183;DHT22;28802;38.578;-0.066;2023-03-13T00:04:40;16.40;99.90
43183;DHT22;28802;38.578;-0.066;2023-03-13T00:07:06;16.30;99.90
43183;DHT22;28802;38.578;-0.066;2023-03-13T00:09:32;16.30;99.90
43183;DHT22;28802;38.578;-0.066;2023-03-13T00:11:57;16.30;99.90
43183;DHT22;28802;38.578;-0.066;2023-03-13T00:14:23;16.40;99.90
43183;DHT22;28802;38.578;-0.066;2023-03-13T00:16:49;16.40;99.90
43183;DHT22;28802;38.578;-0.066;2023-03-13T00:19:15;16.30;99.90
43183;DHT22;28802;38.578;-0.066;2023-03-13T00:21:41;16.40;99.90
43183;DHT22;28802;38.578;-0.066;2023-03-13T00:24:09;16.40;99.90
43183;DHT22;28802;38.578;-0.066;2023-03-13T00:26:35;16.30;99.90
43183;DHT22;28802;38.578;-0.066;2023-03-13T00:29:01;16.30;99.90
43183;DHT22;28802;38.578;-0.066;2023-03-13T00:31:29;16.30;99.90
43183;DHT22;28802;38.578;-0.066;2023-03-13T00:34:00;16.20;99.90
43183;DHT22;28802;38.578;-0.066;2023-03-13T00:36:29;16.10;99.90
43183;DHT22;28802;38.578;-0.066;2023-03-13T00:38:56;16.00;99.90
43183;DHT22;28802;38.578;-0.066;2023-03-13T00:41:25;16.00;99.90
43183;DHT22;28802;38.578;-0.066;2023-03-13T00:43:51;15.90;99.90
43183;DHT22;28802;38.578;-0.066;2023-03-13T00:46:20;15.80;99.90
43183;DHT22;28802;38.578;-0.066;2023-03-13T00:48:46;15.70;99.90
43183;DHT22;28802;38.578;-0.066;2023-03-13T00:51:14;15.60;99.90
43183;DHT22;28802;38.578;-0.066;2023-03-13T00:53:40;15.60;99.90
43183;DHT22;28802;38.578;-0.066;2023-03-13T00:56:09;15.60;99.90
43183;DHT22;28802;38.578;-0.066;2023-03-13T00:58:37;15.70;99.90
43183;DHT22;28802;38.578;-0.066;2023-03-13T01:01:19;15.70;99.90
43183;DHT22;28802;38.578;-0.066;2023-03-13T01:03:51;15.70;99.90
43183;DHT22;28802;38.578;-0.066;2023-03-13T01:06:20;15.70;99.90
43183;DHT22;28802;38.578;-0.066;2023-03-13T01:08:46;15.70;99.90
43183;DHT22;28802;38.578;-0.066;2023-03-13T01:11:17;15.70;99.90
43183;DHT22;28802;38.578;-0.066;2023-03-13T01:13:45;15.80;99.90
43183;DHT22;28802;38.578;-0.066;2023-03-13T01:16:16;15.80;99.90
43183;DHT22;28802;38.578;-0.066;2023-03-13T01:18:45;15.70;99.90
43183;DHT22;28802;38.578;-0.066;2023-03-13T01:21:13;15.80;99.90
43183;DHT22;28802;38.578;-0.066;2023-03-13T01:23:39;15.70;99.90
43183;DHT22;28802;38.578;-0.066;2023-03-13T01:26:06;15.80;99.90
43183;DHT22;28802;38.578;-0.066;2023-03-13T01:28:33;15.80;99.90
43183;DHT22;28802;38.578;-0.066;2023-03-13T01:30:59;15.90;99.90
43183;DHT22;28802;38.578;-0.066;2023-03-13T01:33:25;16.10;99.90
43183;DHT22;28802;38.578;-0.066;2023-03-13T01:35:51;16.00;99.90
43183;DHT22;28802;38.578;-0.066;2023-03-13T01:38:17;15.80;99.90
43183;DHT22;28802;38.578;-0.066;2023-03-13T01:40:46;15.70;99.90
43183;DHT22;28802;38.578;-0.066;2023-03-13T01:43:22;15.70;99.90
43183;DHT22;28802;38.578;-0.066;2023-03-13T01:51:09;15.80;99.90
43183;DHT22;28802;38.578;-0.066;2023-03-13T01:53:40;15.90;99.90
43183;DHT22;28802;38.578;-0.066;2023-03-13T01:56:11;15.90;99.90
43183;DHT22;28802;38.578;-0.066;2023-03-13T01:58:38;15.80;99.90
43183;DHT22;28802;38.578;-0.066;2023-03-13T02:01:05;15.80;99.90
43183;DHT22;28802;38.578;-0.066;2023-03-13T02:03:32;15.80;99.90
43183;DHT22;28802;38.578;-0.066;2023-03-13T02:06:00;15.90;99.90
43183;DHT22;28802;38.578;-0.066;2023-03-13T02:08:53;15.80;99.90
43183;DHT22;28802;38.578;-0.066;2023-03-13T02:11:22;15.80;99.90
43183;DHT22;28802;38.578;-0.066;2023-03-13T02:13:50;15.70;99.90
43183;DHT22;28802;38.578;-0.066;2023-03-13T02:16:19;15.60;99.90
43183;DHT22;28802;38.578;-0.066;2023-03-13T02:18:48;15.60;99.90
43183;DHT22;28802;38.578;-0.066;2023-03-13T02:21:25;15.60;99.90
43183;DHT22;28802;38.578;-0.066;2023-03-13T02:24:12;15.50;99.90
43183;DHT22;28802;38.578;-0.066;2023-03-13T02:26:40;15.60;99.90
43183;DHT22;28802;38.578;-0.066;2023-03-13T02:29:07;15.80;99.90
43183;DHT22;28802;38.578;-0.066;2023-03-13T02:31:34;15.90;99.90
43183;DHT22;28802;38.578;-0.066;2023-03-13T02:34:00;15.90;99.90
43183;DHT22;28802;38.578;-0.066;2023-03-13T02:36:28;15.80;99.90
43183;DHT22;28802;38.578;-0.066;2023-03-13T02:38:58;15.80;99.90
43183;DHT22;28802;38.578;-0.066;2023-03-13T02:41:27;15.70;99.90
43183;DHT22;28802;38.578;-0.066;2023-03-13T02:43:55;15.70;99.90
43183;DHT22;28802;38.578;-0.066;2023-03-13T02:46:21;15.70;99.90
43183;DHT22;28802;38.578;-0.066;2023-03-13T02:48:54;15.50;99.90
43183;DHT22;28802;38.578;-0.066;2023-03-13T02:51:36;15.20;99.90
43183;DHT22;28802;38.578;-0.066;2023-03-13T02:54:07;15.10;99.90
43183;DHT22;28802;38.578;-0.066;2023-03-13T02:56:37;15.10;99.90
43183;DHT22;28802;38.578;-0.066;2023-03-13T02:59:04;15.20;99.90
43183;DHT22;28802;38.578;-0.066;2023-03-13T03:01:32;15.10;99.90
43183;DHT22;28802;38.578;-0.066;2023-03-13T03:03:58;15.00;99.90
43183;DHT22;28802;38.578;-0.066;2023-03-13T03:06:23;15.10;99.90
43183;DHT22;28802;38.578;-0.066;2023-03-13T03:08:50;15.20;99.90
43183;DHT22;28802;38.578;-0.066;2023-03-13T03:11:17;15.30;99.90
43183;DHT22;28802;38.578;-0.066;2023-03-13T03:13:45;15.30;99.90
43183;DHT22;28802;38.578;-0.066;2023-03-13T03:16:13;15.30;99.90
43183;DHT22;28802;38.578;-0.066;2023-03-13T03:18:43;15.30;99.90
43183;DHT22;28802;38.578;-0.066;2023-03-13T03:21:09;15.30;99.90
43183;DHT22;28802;38.578;-0.066;2023-03-13T03:23:38;15.40;99.90
43183;DHT22;28802;38.578;-0.066;2023-03-13T03:26:05;15.40;99.90
43183;DHT22;28802;38.578;-0.066;2023-03-13T03:28:32;15.40;99.90
43183;DHT22;28802;38.578;-0.066;2023-03-13T03:31:09;15.40;99.90
43183;DHT22;28802;38.578;-0.066;2023-03-13T03:33:36;15.40;99.90
43183;DHT22;28802;38.578;-0.066;2023-03-13T03:36:07;15.40;99.90
43183;DHT22;28802;38.578;-0.066;2023-03-13T03:38:34;15.40;99.90
43183;DHT22;28802;38.578;-0.066;2023-03-13T03:41:00;15.50;99.90
43183;DHT22;28802;38.578;-0.066;2023-03-13T03:43:26;15.60;99.90
43183;DHT22;28802;38.578;-0.066;2023-03-13T03:45:52;15.60;99.90
43183;DHT22;28802;38.578;-0.066;2023-03-13T03:48:19;15.60;99.90
43183;DHT22;28802;38.578;-0.066;2023-03-13T03:50:45;15.60;99.90
43183;DHT22;28802;38.578;-0.066;2023-03-13T03:53:13;15.70;99.90
43183;DHT22;28802;38.578;-0.066;2023-03-13T03:55:39;15.60;99.90
43183;DHT22;28802;38.578;-0.066;2023-03-13T03:58:05;15.70;99.90
43183;DHT22;28802;38.578;-0.066;2023-03-13T04:01:04;15.70;99.90
43183;DHT22;28802;38.578;-0.066;2023-03-13T04:03:30;15.50;99.90
43183;DHT22;28802;38.578;-0.066;2023-03-13T04:05:57;15.40;99.90
43183;DHT22;28802;38.578;-0.066;2023-03-13T04:08:23;15.40;99.90
43183;DHT22;28802;38.578;-0.066;2023-03-13T04:10:50;15.40;99.90
43183;DHT22;28802;38.578;-0.066;2023-03-13T04:13:19;15.40;99.90
43183;DHT22;28802;38.578;-0.066;2023-03-13T04:15:45;15.30;99.90
43183;DHT22;28802;38.578;-0.066;2023-03-13T04:18:14;15.30;99.90
43183;DHT22;28802;38.578;-0.066;2023-03-13T04:20:41;15.30;99.90
43183;DHT22;28802;38.578;-0.066;2023-03-13T04:23:09;15.30;99.90
43183;DHT22;28802;38.578;-0.066;2023-03-13T04:25:35;15.30;99.90
43183;DHT22;28802;38.578;-0.066;2023-03-13T04:28:03;15.40;99.90
43183;DHT22;28802;38.578;-0.066;2023-03-13T04:30:36;15.20;99.90
43183;DHT22;28802;38.578;-0.066;2023-03-13T04:33:21;15.10;99.90
43183;DHT22;28802;38.578;-0.066;2023-03-13T04:35:59;15.20;99.90
43183;DHT22;28802;38.578;-0.066;2023-03-13T04:38:43;15.30;99.90
43183;DHT22;28802;38.578;-0.066;2023-03-13T04:41:29;15.40;99.90
43183;DHT22;28802;38.578;-0.066;2023-03-13T04:44:15;15.40;99.90
43183;DHT22;28802;38.578;-0.066;2023-03-13T04:47:00;15.30;99.90
43183;DHT22;28802;38.578;-0.066;2023-03-13T04:49:37;15.20;99.90
43183;DHT22;28802;38.578;-0.066;2023-03-13T04:52:27;15.10;99.90
43183;DHT22;28802;38.578;-0.066;2023-03-13T04:55:06;15.20;99.90
43183;DHT22;28802;38.578;-0.066;2023-03-13T04:57:58;15.20;99.90
43183;DHT22;28802;38.578;-0.066;2023-03-13T05:00:42;15.10;99.90
43183;DHT22;28802;38.578;-0.066;2023-03-13T05:03:27;15.10;99.90
43183;DHT22;28802;38.578;-0.066;2023-03-13T05:06:13;15.10;99.90
43183;DHT22;28802;38.578;-0.066;2023-03-13T05:08:39;15.20;99.90
43183;DHT22;28802;38.578;-0.066;2023-03-13T05:11:23;15.20;99.90
43183;DHT22;28802;38.578;-0.066;2023-03-13T05:13:58;15.20;99.90
43183;DHT22;28802;38.578;-0.066;2023-03-13T05:16:50;15.20;99.90
43183;DHT22;28802;38.578;-0.066;2023-03-13T05:19:45;15.20;99.90
43183;DHT22;28802;38.578;-0.066;2023-03-13T05:22:27;15.20;99.90
43183;DHT22;28802;38.578;-0.066;2023-03-13T05:25:12;15.20;99.90
43183;DHT22;28802;38.578;-0.066;2023-03-13T05:27:57;15.30;99.90
43183;DHT22;28802;38.578;-0.066;2023-03-13T05:30:46;15.30;99.90
43183;DHT22;28802;38.578;-0.066;2023-03-13T05:33:50;15.30;99.90
43183;DHT22;28802;38.578;-0.066;2023-03-13T05:36:36;15.40;99.90
43183;DHT22;28802;38.578;-0.066;2023-03-13T05:39:14;15.30;99.90
43183;DHT22;28802;38.578;-0.066;2023-03-13T05:41:58;15.30;99.90
43183;DHT22;28802;38.578;-0.066;2023-03-13T05:44:40;15.30;99.90
43183;DHT22;28802;38.578;-0.066;2023-03-13T05:47:24;15.30;99.90
43183;DHT22;28802;38.578;-0.066;2023-03-13T05:50:13;15.30;99.90
43183;DHT22;28802;38.578;-0.066;2023-03-13T05:53:15;15.20;99.90
43183;DHT22;28802;38.578;-0.066;2023-03-13T05:55:50;15.10;99.90
43183;DHT22;28802;38.578;-0.066;2023-03-13T05:58:35;15.10;99.90
43183;DHT22;28802;38.578;-0.066;2023-03-13T06:01:11;15.10;99.90
43183;DHT22;28802;38.578;-0.066;2023-03-13T06:03:53;15.00;99.90
43183;DHT22;28802;38.578;-0.066;2023-03-13T06:06:19;15.00;99.90
43183;DHT22;28802;38.578;-0.066;2023-03-13T06:08:51;15.00;99.90
43183;DHT22;28802;38.578;-0.066;2023-03-13T06:11:23;14.90;99.90
43183;DHT22;28802;38.578;-0.066;2023-03-13T06:13:51;14.90;99.90
43183;DHT22;28802;38.578;-0.066;2023-03-13T06:16:38;15.00;99.90
43183;DHT22;28802;38.578;-0.066;2023-03-13T06:19:14;15.00;99.90
43183;DHT22;28802;38.578;-0.066;2023-03-13T06:21:40;15.00;99.90
43183;DHT22;28802;38.578;-0.066;2023-03-13T06:24:06;15.10;99.90
43183;DHT22;28802;38.578;-0.066;2023-03-13T06:26:32;15.20;99.90
43183;DHT22;28802;38.578;-0.066;2023-03-13T06:28:58;15.30;99.90
43183;DHT22;28802;38.578;-0.066;2023-03-13T06:31:24;15.50;99.90
43183;DHT22;28802;38.578;-0.066;2023-03-13T06:33:54;15.60;99.90
43183;DHT22;28802;38.578;-0.066;2023-03-13T06:36:24;15.60;99.90
43183;DHT22;28802;38.578;-0.066;2023-03-13T06:38:50;15.60;99.90
43183;DHT22;28802;38.578;-0.066;2023-03-13T06:41:16;15.60;99.90
43183;DHT22;28802;38.578;-0.066;2023-03-13T06:43:42;15.50;99.90
43183;DHT22;28802;38.578;-0.066;2023-03-13T06:46:17;15.50;99.90
43183;DHT22;28802;38.578;-0.066;2023-03-13T06:48:44;15.60;99.90
43183;DHT22;28802;38.578;-0.066;2023-03-13T06:51:15;15.70;99.90
43183;DHT22;28802;38.578;-0.066;2023-03-13T06:53:41;15.80;99.90
43183;DHT22;28802;38.578;-0.066;2023-03-13T06:56:08;16.00;99.90
43183;DHT22;28802;38.578;-0.066;2023-03-13T06:58:34;16.30;99.90
43183;DHT22;28802;38.578;-0.066;2023-03-13T07:01:12;16.50;99.90
43183;DHT22;28802;38.578;-0.066;2023-03-13T07:03:39;16.60;99.90
43183;DHT22;28802;38.578;-0.066;2023-03-13T07:06:09;16.80;99.90
43183;DHT22;28802;38.578;-0.066;2023-03-13T07:08:36;17.10;99.90
43183;DHT22;28802;38.578;-0.066;2023-03-13T07:11:09;17.40;99.90
43183;DHT22;28802;38.578;-0.066;2023-03-13T07:13:35;18.10;99.90
43183;DHT22;28802;38.578;-0.066;2023-03-13T07:16:03;19.00;99.90
43183;DHT22;28802;38.578;-0.066;2023-03-13T07:18:30;19.70;99.90
43183;DHT22;28802;38.578;-0.066;2023-03-13T07:20:57;20.40;99.90
43183;DHT22;28802;38.578;-0.066;2023-03-13T07:23:26;21.00;99.90
43183;DHT22;28802;38.578;-0.066;2023-03-13T07:26:04;21.80;99.90
43183;DHT22;28802;38.578;-0.066;2023-03-13T07:28:31;22.40;99.90
43183;DHT22;28802;38.578;-0.066;2023-03-13T07:31:26;22.60;99.90
43183;DHT22;28802;38.578;-0.066;2023-03-13T07:33:55;22.70;99.90
43183;DHT22;28802;38.578;-0.066;2023-03-13T07:36:21;23.10;99.90
43183;DHT22;28802;38.578;-0.066;2023-03-13T07:38:48;23.50;99.90
43183;DHT22;28802;38.578;-0.066;2023-03-13T07:41:15;23.80;99.90
43183;DHT22;28802;38.578;-0.066;2023-03-13T07:43:41;24.30;99.90
43183;DHT22;28802;38.578;-0.066;2023-03-13T07:46:09;24.80;99.90
43183;DHT22;28802;38.578;-0.066;2023-03-13T07:48:38;24.80;99.90
43183;DHT22;28802;38.578;-0.066;2023-03-13T07:51:06;24.80;99.90
43183;DHT22;28802;38.578;-0.066;2023-03-13T07:53:32;24.50;99.90
43183;DHT22;28802;38.578;-0.066;2023-03-13T07:56:01;25.20;99.90
43183;DHT22;28802;38.578;-0.066;2023-03-13T07:58:34;25.20;99.90
43183;DHT22;28802;38.578;-0.066;2023-03-13T08:01:01;25.10;99.90
43183;DHT22;28802;38.578;-0.066;2023-03-13T08:03:27;25.20;99.90
43183;DHT22;28802;38.578;-0.066;2023-03-13T08:06:06;25.80;99.90
43183;DHT22;28802;38.578;-0.066;2023-03-13T08:08:32;26.20;99.90
43183;DHT22;28802;38.578;-0.066;2023-03-13T08:11:00;26.70;99.90
43183;DHT22;28802;38.578;-0.066;2023-03-13T08:13:27;26.90;99.90
43183;DHT22;28802;38.578;-0.066;2023-03-13T08:18:57;27.50;99.90
43183;DHT22;28802;38.578;-0.066;2023-03-13T08:21:41;28.30;99.90
43183;DHT22;28802;38.578;-0.066;2023-03-13T08:24:09;27.40;99.90
43183;DHT22;28802;38.578;-0.066;2023-03-13T08:26:37;26.80;99.90
43183;DHT22;28802;38.578;-0.066;2023-03-13T08:29:07;26.80;99.90
43183;DHT22;28802;38.578;-0.066;2023-03-13T08:31:35;26.60;99.90
43183;DHT22;28802;38.578;-0.066;2023-03-13T08:34:05;26.70;99.90
43183;DHT22;28802;38.578;-0.066;2023-03-13T08:36:33;27.10;99.90
43183;DHT22;28802;38.578;-0.066;2023-03-13T08:39:15;27.50;99.90
43183;DHT22;28802;38.578;-0.066;2023-03-13T08:41:46;27.50;99.90
43183;DHT22;28802;38.578;-0.066;2023-03-13T08:44:14;27.80;99.90
43183;DHT22;28802;38.578;-0.066;2023-03-13T08:46:41;27.30;99.90
43183;DHT22;28802;38.578;-0.066;2023-03-13T08:49:09;26.70;99.90
43183;DHT22;28802;38.578;-0.066;2023-03-13T08:51:35;26.40;99.90
43183;DHT22;28802;38.578;-0.066;2023-03-13T08:54:02;26.90;99.90
43183;DHT22;28802;38.578;-0.066;2023-03-13T08:56:29;26.60;99.90
43183;DHT22;28802;38.578;-0.066;2023-03-13T08:58:58;26.20;99.90
43183;DHT22;28802;38.578;-0.066;2023-03-13T09:01:27;26.20;99.90
43183;DHT22;28802;38.578;-0.066;2023-03-13T09:03:54;26.10;99.90
43183;DHT22;28802;38.578;-0.066;2023-03-13T09:06:20;26.60;99.90
43183;DHT22;28802;38.578;-0.066;2023-03-13T09:08:46;26.80;99.90
43183;DHT22;28802;38.578;-0.066;2023-03-13T09:11:15;27.10;99.90
43183;DHT22;28802;38.578;-0.066;2023-03-13T09:13:45;27.00;99.90
43183;DHT22;28802;38.578;-0.066;2023-03-13T09:16:16;27.00;99.90
43183;DHT22;28802;38.578;-0.066;2023-03-13T09:18:43;26.90;99.90
43183;DHT22;28802;38.578;-0.066;2023-03-13T09:21:21;27.00;99.90
43183;DHT22;28802;38.578;-0.066;2023-03-13T09:23:48;26.90;99.90
43183;DHT22;28802;38.578;-0.066;2023-03-13T09:26:15;27.30;99.90
43183;DHT22;28802;38.578;-0.066;2023-03-13T09:28:42;27.50;99.90
43183;DHT22;28802;38.578;-0.066;2023-03-13T09:33:42;27.10;99.90
43183;DHT22;28802;38.578;-0.066;2023-03-13T09:36:10;27.20;99.90
43183;DHT22;28802;38.578;-0.066;2023-03-13T09:38:37;27.40;99.90
43183;DHT22;28802;38.578;-0.066;2023-03-13T09:46:47;27.90;99.90
43183;DHT22;28802;38.578;-0.066;2023-03-13T09:49:45;27.70;99.90
43183;DHT22;28802;38.578;-0.066;2023-03-13T09:52:21;27.70;99.90
43183;DHT22;28802;38.578;-0.066;2023-03-13T09:55:20;27.80;99.90
43183;DHT22;28802;38.578;-0.066;2023-03-13T10:00:31;27.10;99.90
43183;DHT22;28802;38.578;-0.066;2023-03-13T10:03:11;26.40;99.90
43183;DHT22;28802;38.578;-0.066;2023-03-13T10:05:48;26.00;99.90
43183;DHT22;28802;38.578;-0.066;2023-03-13T10:08:17;25.90;99.90
43183;DHT22;28802;38.578;-0.066;2023-03-13T10:11:03;26.20;99.90
43183;DHT22;28802;38.578;-0.066;2023-03-13T10:19:39;26.20;99.90
43183;DHT22;28802;38.578;-0.066;2023-03-13T10:22:19;26.10;99.90
43183;DHT22;28802;38.578;-0.066;2023-03-13T10:25:02;26.30;99.90
43183;DHT22;28802;38.578;-0.066;2023-03-13T10:27:29;26.60;99.90
43183;DHT22;28802;38.578;-0.066;2023-03-13T10:29:55;26.70;99.90
43183;DHT22;28802;38.578;-0.066;2023-03-13T10:32:21;26.50;99.90
43183;DHT22;28802;38.578;-0.066;2023-03-13T10:34:56;26.60;99.90
43183;DHT22;28802;38.578;-0.066;2023-03-13T10:37:25;27.10;99.90
43183;DHT22;28802;38.578;-0.066;2023-03-13T10:39:52;27.30;99.90
43183;DHT22;28802;38.578;-0.066;2023-03-13T10:42:31;27.50;99.90
43183;DHT22;28802;38.578;-0.066;2023-03-13T10:45:00;27.30;99.90
43183;DHT22;28802;38.578;-0.066;2023-03-13T10:47:27;27.00;99.90
43183;DHT22;28802;38.578;-0.066;2023-03-13T10:50:03;27.30;99.90
43183;DHT22;28802;38.578;-0.066;2023-03-13T10:52:46;27.40;99.90
43183;DHT22;28802;38.578;-0.066;2023-03-13T10:55:22;27.50;99.90
43183;DHT22;28802;38.578;-0.066;2023-03-13T11:00:37;27.80;99.90
43183;DHT22;28802;38.578;-0.066;2023-03-13T11:03:18;28.00;99.90
43183;DHT22;28802;38.578;-0.066;2023-03-13T11:05:56;27.30;99.90
43183;DHT22;28802;38.578;-0.066;2023-03-13T11:08:25;26.80;99.90
43183;DHT22;28802;38.578;-0.066;2023-03-13T11:10:57;26.80;99.90
43183;DHT22;28802;38.578;-0.066;2023-03-13T11:13:42;27.30;99.90
43183;DHT22;28802;38.578;-0.066;2023-03-13T11:16:21;27.60;99.90
43183;DHT22;28802;38.578;-0.066;2023-03-13T11:27:18;27.40;99.90
43183;DHT22;28802;38.578;-0.066;2023-03-13T11:32:59;27.50;99.90
43183;DHT22;28802;38.578;-0.066;2023-03-13T11:38:41;27.60;99.90
43183;DHT22;28802;38.578;-0.066;2023-03-13T11:48:59;27.30;99.90
43183;DHT22;28802;38.578;-0.066;2023-03-13T11:51:52;27.30;99.90
43183;DHT22;28802;38.578;-0.066;2023-03-13T11:56:56;27.10;99.90
43183;DHT22;28802;38.578;-0.066;2023-03-13T11:59:38;27.40;99.90
43183;DHT22;28802;38.578;-0.066;2023-03-13T12:02:35;27.50;99.90
43183;DHT22;28802;38.578;-0.066;2023-03-13T12:05:09;27.40;99.90
43183;DHT22;28802;38.578;-0.066;2023-03-13T12:15:27;26.90;99.90
43183;DHT22;28802;38.578;-0.066;2023-03-13T12:20:45;26.90;99.90
43183;DHT22;28802;38.578;-0.066;2023-03-13T12:23:19;26.60;99.90
43183;DHT22;28802;38.578;-0.066;2023-03-13T12:25:52;26.50;99.90
43183;DHT22;28802;38.578;-0.066;2023-03-13T12:28:26;26.70;99.90
43183;DHT22;28802;38.578;-0.066;2023-03-13T12:33:53;26.60;99.90
43183;DHT22;28802;38.578;-0.066;2023-03-13T12:40:18;26.70;99.90
43183;DHT22;28802;38.578;-0.066;2023-03-13T12:45:36;26.40;99.90
43183;DHT22;28802;38.578;-0.066;2023-03-13T12:48:21;25.90;99.90
43183;DHT22;28802;38.578;-0.066;2023-03-13T12:56:52;25.20;99.90
43183;DHT22;28802;38.578;-0.066;2023-03-13T13:02:31;25.10;99.90
43183;DHT22;28802;38.578;-0.066;2023-03-13T13:04:59;24.80;99.90
43183;DHT22;28802;38.578;-0.066;2023-03-13T13:08:01;24.80;99.90
43183;DHT22;28802;38.578;-0.066;2023-03-13T13:10:28;24.60;99.90
43183;DHT22;28802;38.578;-0.066;2023-03-13T13:18:29;24.80;99.90
43183;DHT22;28802;38.578;-0.066;2023-03-13T13:28:56;25.50;99.90
43183;DHT22;28802;38.578;-0.066;2023-03-13T13:37:23;24.50;99.90
43183;DHT22;28802;38.578;-0.066;2023-03-13T13:39:52;24.40;99.90
43183;DHT22;28802;38.578;-0.066;2023-03-13T13:47:44;24.00;99.90
43183;DHT22;28802;38.578;-0.066;2023-03-13T13:50:22;23.90;99.90
43183;DHT22;28802;38.578;-0.066;2023-03-13T13:52:49;24.00;99.90
43183;DHT22;28802;38.578;-0.066;2023-03-13T13:55:29;23.80;99.90
43183;DHT22;28802;38.578;-0.066;2023-03-13T13:58:24;23.70;99.90
43183;DHT22;28802;38.578;-0.066;2023-03-13T14:01:01;23.70;99.90
43183;DHT22;28802;38.578;-0.066;2023-03-13T14:03:38;23.70;99.90
43183;DHT22;28802;38.578;-0.066;2023-03-13T14:06:26;23.60;99.90
43183;DHT22;28802;38.578;-0.066;2023-03-13T14:08:56;23.40;99.90
43183;DHT22;28802;38.578;-0.066;2023-03-13T14:11:37;23.40;99.90
43183;DHT22;28802;38.578;-0.066;2023-03-13T14:14:20;23.50;99.90
43183;DHT22;28802;38.578;-0.066;2023-03-13T14:16:49;23.40;99.90
43183;DHT22;28802;38.578;-0.066;2023-03-13T14:22:04;23.30;99.90
43183;DHT22;28802;38.578;-0.066;2023-03-13T14:24:34;23.20;99.90
43183;DHT22;28802;38.578;-0.066;2023-03-13T14:27:00;23.10;99.90
43183;DHT22;28802;38.578;-0.066;2023-03-13T14:29:27;23.00;99.90
43183;DHT22;28802;38.578;-0.066;2023-03-13T14:31:58;23.00;99.90
43183;DHT22;28802;38.578;-0.066;2023-03-13T14:34:29;22.80;99.90
43183;DHT22;28802;38.578;-0.066;2023-03-13T14:36:59;22.80;99.90
43183;DHT22;28802;38.578;-0.066;2023-03-13T14:42:08;22.80;99.90
43183;DHT22;28802;38.578;-0.066;2023-03-13T14:44:35;22.60;99.90
43183;DHT22;28802;38.578;-0.066;2023-03-13T14:47:07;22.60;99.90
43183;DHT22;28802;38.578;-0.066;2023-03-13T14:49:34;22.60;99.90
43183;DHT22;28802;38.578;-0.066;2023-03-13T14:54:34;22.40;99.90
43183;DHT22;28802;38.578;-0.066;2023-03-13T14:57:14;22.30;99.90
43183;DHT22;28802;38.578;-0.066;2023-03-13T14:59:41;22.20;99.90
43183;DHT22;28802;38.578;-0.066;2023-03-13T15:02:29;22.20;99.90
43183;DHT22;28802;38.578;-0.066;2023-03-13T15:05:00;22.10;99.90
43183;DHT22;28802;38.578;-0.066;2023-03-13T15:07:41;22.10;99.90
43183;DHT22;28802;38.578;-0.066;2023-03-13T15:10:19;22.00;99.90
43183;DHT22;28802;38.578;-0.066;2023-03-13T15:12:45;22.00;99.90
43183;DHT22;28802;38.578;-0.066;2023-03-13T15:15:11;22.00;99.90
43183;DHT22;28802;38.578;-0.066;2023-03-13T15:17:37;22.00;99.90
43183;DHT22;28802;38.578;-0.066;2023-03-13T15:20:04;22.00;99.90
43183;DHT22;28802;38.578;-0.066;2023-03-13T15:22:35;21.90;99.90
43183;DHT22;28802;38.578;-0.066;2023-03-13T15:25:02;21.90;99.90
43183;DHT22;28802;38.578;-0.066;2023-03-13T15:27:29;21.90;99.90
43183;DHT22;28802;38.578;-0.066;2023-03-13T15:29:55;22.00;99.90
43183;DHT22;28802;38.578;-0.066;2023-03-13T15:32:32;21.90;99.90
43183;DHT22;28802;38.578;-0.066;2023-03-13T15:34:59;22.00;99.90
43183;DHT22;28802;38.578;-0.066;2023-03-13T15:37:53;22.00;99.90
43183;DHT22;28802;38.578;-0.066;2023-03-13T15:40:19;22.00;99.90
43183;DHT22;28802;38.578;-0.066;2023-03-13T15:42:45;22.00;99.90
43183;DHT22;28802;38.578;-0.066;2023-03-13T15:45:11;21.80;99.90
43183;DHT22;28802;38.578;-0.066;2023-03-13T15:47:37;21.80;99.90
43183;DHT22;28802;38.578;-0.066;2023-03-13T15:50:03;21.80;99.90
43183;DHT22;28802;38.578;-0.066;2023-03-13T15:52:30;21.70;99.90
43183;DHT22;28802;38.578;-0.066;2023-03-13T15:54:56;21.70;99.90
43183;DHT22;28802;38.578;-0.066;2023-03-13T15:57:24;21.60;99.90
43183;DHT22;28802;38.578;-0.066;2023-03-13T15:59:52;21.50;99.90
43183;DHT22;28802;38.578;-0.066;2023-03-13T16:02:20;21.40;99.90
43183;DHT22;28802;38.578;-0.066;2023-03-13T16:04:49;21.40;99.90
43183;DHT22;28802;38.578;-0.066;2023-03-13T16:07:20;21.30;99.90
43183;DHT22;28802;38.578;-0.066;2023-03-13T16:09:46;21.20;99.90
43183;DHT22;28802;38.578;-0.066;2023-03-13T16:12:12;21.20;99.90
43183;DHT22;28802;38.578;-0.066;2023-03-13T16:14:39;21.10;99.90
43183;DHT22;28802;38.578;-0.066;2023-03-13T16:17:18;21.00;99.90
43183;DHT22;28802;38.578;-0.066;2023-03-13T16:19:45;20.90;99.90
43183;DHT22;28802;38.578;-0.066;2023-03-13T16:22:12;20.70;99.90
43183;DHT22;28802;38.578;-0.066;2023-03-13T16:24:39;20.60;99.90
43183;DHT22;28802;38.578;-0.066;2023-03-13T16:27:14;20.60;99.90
43183;DHT22;28802;38.578;-0.066;2023-03-13T16:29:41;20.70;99.90
43183;DHT22;28802;38.578;-0.066;2023-03-13T16:32:10;20.50;99.90
43183;DHT22;28802;38.578;-0.066;2023-03-13T16:34:37;20.50;99.90
43183;DHT22;28802;38.578;-0.066;2023-03-13T16:37:14;20.40;99.90
43183;DHT22;28802;38.578;-0.066;2023-03-13T16:39:43;20.40;99.90
43183;DHT22;28802;38.578;-0.066;2023-03-13T16:42:09;20.40;99.90
43183;DHT22;28802;38.578;-0.066;2023-03-13T16:44:36;20.40;99.90
43183;DHT22;28802;38.578;-0.066;2023-03-13T16:47:21;20.40;99.90
43183;DHT22;28802;38.578;-0.066;2023-03-13T16:49:48;20.30;99.90
43183;DHT22;28802;38.578;-0.066;2023-03-13T16:52:15;20.30;99.90
43183;DHT22;28802;38.578;-0.066;2023-03-13T16:54:42;20.20;99.90
43183;DHT22;28802;38.578;-0.066;2023-03-13T16:57:16;20.20;99.90
43183;DHT22;28802;38.578;-0.066;2023-03-13T16:59:42;20.20;99.90
43183;DHT22;28802;38.578;-0.066;2023-03-13T17:02:18;20.20;99.90
43183;DHT22;28802;38.578;-0.066;2023-03-13T17:04:46;20.10;99.90
43183;DHT22;28802;38.578;-0.066;2023-03-13T17:07:22;20.10;99.90
43183;DHT22;28802;38.578;-0.066;2023-03-13T17:09:49;20.10;99.90
43183;DHT22;28802;38.578;-0.066;2023-03-13T17:12:16;20.10;99.90
43183;DHT22;28802;38.578;-0.066;2023-03-13T17:14:42;20.10;99.90
43183;DHT22;28802;38.578;-0.066;2023-03-13T17:17:11;20.00;99.90
43183;DHT22;28802;38.578;-0.066;2023-03-13T17:19:38;19.90;99.90
43183;DHT22;28802;38.578;-0.066;2023-03-13T17:22:03;19.90;99.90
43183;DHT22;28802;38.578;-0.066;2023-03-13T17:24:30;19.80;99.90
43183;DHT22;28802;38.578;-0.066;2023-03-13T17:26:57;19.70;99.90
43183;DHT22;28802;38.578;-0.066;2023-03-13T17:29:23;19.60;99.90
43183;DHT22;28802;38.578;-0.066;2023-03-13T17:31:49;19.50;99.90
43183;DHT22;28802;38.578;-0.066;2023-03-13T17:34:15;19.50;99.90
43183;DHT22;28802;38.578;-0.066;2023-03-13T17:36:41;19.50;99.90
43183;DHT22;28802;38.578;-0.066;2023-03-13T17:39:12;19.40;99.90